sensor_id;sensor_type;location;lat;lon;timestamp;P1;durP1;ratioP1;P2;durP2;ratioP2
7545;SDS011;3814;51.454;12.616;2022-12-07T00:01:36;16.38;;;5.90;;
7545;SDS011;3814;51.454;12.616;2022-12-07T00:04:06;15.95;;;5.72;;
7545;SDS011;3814;51.454;12.616;2022-12-07T00:06:33;16.40;;;5.78;;
7545;SDS011;3814;51.454;12.616;2022-12-07T00:08:59;14.45;;;5.78;;
7545;SDS011;3814;51.454;12.616;2022-12-07T00:11:25;15.80;;;5.60;;
7545;SDS011;3814;51.454;12.616;2022-12-07T00:13:54;13.68;;;5.18;;
7545;SDS011;3814;51.454;12.616;2022-12-07T00:16:23;16.85;;;5.82;;
7545;SDS011;3814;51.454;12.616;2022-12-07T00:18:50;15.57;;;5.10;;
7545;SDS011;3814;51.454;12.616;2022-12-07T00:21:20;14.75;;;4.90;;
7545;SDS011;3814;51.454;12.616;2022-12-07T00:23:49;16.23;;;5.25;;
7545;SDS011;3814;51.454;12.616;2022-12-07T00:26:17;15.68;;;5.70;;
7545;SDS011;3814;51.454;12.616;2022-12-07T00:28:47;14.50;;;5.45;;
7545;SDS011;3814;51.454;12.616;2022-12-07T00:31:15;15.13;;;5.25;;
7545;SDS011;3814;51.454;12.616;2022-12-07T00:33:41;14.43;;;5.07;;
7545;SDS011;3814;51.454;12.616;2022-12-07T00:36:08;13.73;;;5.13;;
7545;SDS011;3814;51.454;12.616;2022-12-07T00:38:35;15.32;;;5.68;;
7545;SDS011;3814;51.454;12.616;2022-12-07T00:41:02;15.02;;;5.65;;
7545;SDS011;3814;51.454;12.616;2022-12-07T00:43:30;12.93;;;5.43;;
7545;SDS011;3814;51.454;12.616;2022-12-07T00:45:56;12.52;;;4.88;;
7545;SDS011;3814;51.454;12.616;2022-12-07T00:48:22;13.95;;;5.28;;
7545;SDS011;3814;51.454;12.616;2022-12-07T00:50:48;16.30;;;5.32;;
7545;SDS011;3814;51.454;12.616;2022-12-07T00:53:14;14.70;;;5.57;;
7545;SDS011;3814;51.454;12.616;2022-12-07T00:55:40;13.65;;;5.05;;
7545;SDS011;3814;51.454;12.616;2022-12-07T00:58:05;16.48;;;5.78;;
7545;SDS011;3814;51.454;12.616;2022-12-07T01:00:31;14.98;;;5.72;;
7545;SDS011;3814;51.454;12.616;2022-12-07T01:02:57;17.33;;;6.18;;
7545;SDS011;3814;51.454;12.616;2022-12-07T01:05:23;17.35;;;6.18;;
7545;SDS011;3814;51.454;12.616;2022-12-07T01:07:48;15.63;;;5.82;;
7545;SDS011;3814;51.454;12.616;2022-12-07T01:10:14;16.98;;;6.20;;
7545;SDS011;3814;51.454;12.616;2022-12-07T01:15:07;16.55;;;5.85;;
7545;SDS011;3814;51.454;12.616;2022-12-07T01:17:33;17.45;;;5.65;;
7545;SDS011;3814;51.454;12.616;2022-12-07T01:19:58;17.77;;;6.30;;
7545;SDS011;3814;51.454;12.616;2022-12-07T01:22:24;15.63;;;5.90;;
7545;SDS011;3814;51.454;12.616;2022-12-07T01:24:49;16.13;;;5.82;;
7545;SDS011;3814;51.454;12.616;2022-12-07T01:27:14;15.98;;;6.05;;
7545;SDS011;3814;51.454;12.616;2022-12-07T01:29:40;17.63;;;5.68;;
7545;SDS011;3814;51.454;12.616;2022-12-07T01:32:06;18.38;;;6.43;;
7545;SDS011;3814;51.454;12.616;2022-12-07T01:34:31;16.13;;;6.30;;
7545;SDS011;3814;51.454;12.616;2022-12-07T01:36:56;17.10;;;6.50;;
7545;SDS011;3814;51.454;12.616;2022-12-07T01:39:22;16.55;;;6.00;;
7545;SDS011;3814;51.454;12.616;2022-12-07T01:41:48;16.38;;;6.32;;
7545;SDS011;3814;51.454;12.616;2022-12-07T01:46:47;20.83;;;7.13;;
7545;SDS011;3814;51.454;12.616;2022-12-07T01:49:18;17.95;;;6.28;;
7545;SDS011;3814;51.454;12.616;2022-12-07T01:51:47;18.92;;;6.65;;
7545;SDS011;3814;51.454;12.616;2022-12-07T01:54:14;16.92;;;6.88;;
7545;SDS011;3814;51.454;12.616;2022-12-07T01:56:42;19.70;;;6.82;;
7545;SDS011;3814;51.454;12.616;2022-12-07T01:59:09;17.65;;;6.53;;
7545;SDS011;3814;51.454;12.616;2022-12-07T02:01:34;18.65;;;6.60;;
7545;SDS011;3814;51.454;12.616;2022-12-07T02:04:00;16.60;;;6.53;;
7545;SDS011;3814;51.454;12.616;2022-12-07T02:06:25;19.63;;;6.80;;
7545;SDS011;3814;51.454;12.616;2022-12-07T02:08:51;17.83;;;6.07;;
7545;SDS011;3814;51.454;12.616;2022-12-07T02:11:17;17.73;;;6.22;;
7545;SDS011;3814;51.454;12.616;2022-12-07T02:13:42;20.45;;;6.68;;
7545;SDS011;3814;51.454;12.616;2022-12-07T02:21:45;18.85;;;6.72;;
7545;SDS011;3814;51.454;12.616;2022-12-07T02:32:38;18.25;;;6.60;;
7545;SDS011;3814;51.454;12.616;2022-12-07T02:40:04;16.33;;;6.68;;
7545;SDS011;3814;51.454;12.616;2022-12-07T02:42:38;19.23;;;7.00;;
7545;SDS011;3814;51.454;12.616;2022-12-07T02:45:09;20.33;;;6.95;;
7545;SDS011;3814;51.454;12.616;2022-12-07T02:47:35;22.05;;;7.53;;
7545;SDS011;3814;51.454;12.616;2022-12-07T02:50:03;22.92;;;7.25;;
7545;SDS011;3814;51.454;12.616;2022-12-07T02:52:30;21.48;;;7.00;;
7545;SDS011;3814;51.454;12.616;2022-12-07T02:54:55;18.73;;;6.78;;
7545;SDS011;3814;51.454;12.616;2022-12-07T03:16:05;21.25;;;7.32;;
7545;SDS011;3814;51.454;12.616;2022-12-07T03:18:36;23.85;;;7.35;;
7545;SDS011;3814;51.454;12.616;2022-12-07T03:21:05;21.30;;;7.20;;
7545;SDS011;3814;51.454;12.616;2022-12-07T03:23:34;22.50;;;7.55;;
7545;SDS011;3814;51.454;12.616;2022-12-07T03:26:00;18.80;;;6.85;;
7545;SDS011;3814;51.454;12.616;2022-12-07T03:28:29;20.52;;;6.75;;
7545;SDS011;3814;51.454;12.616;2022-12-07T03:33:46;18.45;;;6.80;;
7545;SDS011;3814;51.454;12.616;2022-12-07T03:38:45;23.60;;;7.47;;
7545;SDS011;3814;51.454;12.616;2022-12-07T03:41:21;17.95;;;6.45;;
7545;SDS011;3814;51.454;12.616;2022-12-07T03:43:48;20.33;;;6.82;;
7545;SDS011;3814;51.454;12.616;2022-12-07T03:46:24;20.33;;;6.88;;
7545;SDS011;3814;51.454;12.616;2022-12-07T03:48:59;18.85;;;6.45;;
7545;SDS011;3814;51.454;12.616;2022-12-07T03:54:33;22.00;;;6.90;;
7545;SDS011;3814;51.454;12.616;2022-12-07T03:57:01;20.90;;;7.07;;
7545;SDS011;3814;51.454;12.616;2022-12-07T03:59:27;18.88;;;6.70;;
7545;SDS011;3814;51.454;12.616;2022-12-07T04:01:55;18.58;;;6.43;;
7545;SDS011;3814;51.454;12.616;2022-12-07T04:04:24;19.08;;;6.13;;
7545;SDS011;3814;51.454;12.616;2022-12-07T04:06:50;17.35;;;5.97;;
7545;SDS011;3814;51.454;12.616;2022-12-07T04:09:16;18.15;;;5.97;;
7545;SDS011;3814;51.454;12.616;2022-12-07T04:11:41;18.88;;;6.18;;
7545;SDS011;3814;51.454;12.616;2022-12-07T04:14:07;18.88;;;6.57;;
7545;SDS011;3814;51.454;12.616;2022-12-07T04:16:51;17.02;;;5.57;;
7545;SDS011;3814;51.454;12.616;2022-12-07T04:19:19;19.27;;;6.25;;
7545;SDS011;3814;51.454;12.616;2022-12-07T04:21:46;17.60;;;6.30;;
7545;SDS011;3814;51.454;12.616;2022-12-07T04:24:12;19.70;;;6.30;;
7545;SDS011;3814;51.454;12.616;2022-12-07T04:26:38;19.80;;;6.15;;
7545;SDS011;3814;51.454;12.616;2022-12-07T04:29:03;17.60;;;5.90;;
7545;SDS011;3814;51.454;12.616;2022-12-07T04:31:29;16.77;;;5.82;;
7545;SDS011;3814;51.454;12.616;2022-12-07T04:33:54;16.13;;;5.47;;
7545;SDS011;3814;51.454;12.616;2022-12-07T04:36:19;17.73;;;5.63;;
7545;SDS011;3814;51.454;12.616;2022-12-07T04:38:45;15.43;;;5.82;;
7545;SDS011;3814;51.454;12.616;2022-12-07T04:41:11;17.25;;;6.13;;
7545;SDS011;3814;51.454;12.616;2022-12-07T04:43:37;16.42;;;5.97;;
7545;SDS011;3814;51.454;12.616;2022-12-07T04:46:02;16.90;;;5.75;;
7545;SDS011;3814;51.454;12.616;2022-12-07T04:48:28;16.85;;;5.80;;
7545;SDS011;3814;51.454;12.616;2022-12-07T04:50:53;18.67;;;5.70;;
7545;SDS011;3814;51.454;12.616;2022-12-07T04:53:18;18.63;;;6.10;;
7545;SDS011;3814;51.454;12.616;2022-12-07T04:55:44;16.45;;;5.88;;
7545;SDS011;3814;51.454;12.616;2022-12-07T04:58:10;17.77;;;6.20;;
7545;SDS011;3814;51.454;12.616;2022-12-07T05:00:35;17.77;;;6.50;;
7545;SDS011;3814;51.454;12.616;2022-12-07T05:03:00;20.17;;;6.35;;
7545;SDS011;3814;51.454;12.616;2022-12-07T05:05:26;18.33;;;6.00;;
7545;SDS011;3814;51.454;12.616;2022-12-07T05:07:51;16.55;;;6.05;;
7545;SDS011;3814;51.454;12.616;2022-12-07T05:10:16;17.25;;;5.68;;
7545;SDS011;3814;51.454;12.616;2022-12-07T05:12:42;18.70;;;6.47;;
7545;SDS011;3814;51.454;12.616;2022-12-07T05:15:07;16.95;;;6.18;;
7545;SDS011;3814;51.454;12.616;2022-12-07T05:17:33;16.17;;;5.72;;
7545;SDS011;3814;51.454;12.616;2022-12-07T05:19:58;19.33;;;6.43;;
7545;SDS011;3814;51.454;12.616;2022-12-07T05:22:23;18.63;;;6.72;;
7545;SDS011;3814;51.454;12.616;2022-12-07T05:27:18;17.88;;;5.55;;
7545;SDS011;3814;51.454;12.616;2022-12-07T05:29:43;16.58;;;5.63;;
7545;SDS011;3814;51.454;12.616;2022-12-07T05:32:08;16.70;;;5.97;;
7545;SDS011;3814;51.454;12.616;2022-12-07T05:34:34;16.23;;;5.60;;
7545;SDS011;3814;51.454;12.616;2022-12-07T05:36:59;16.17;;;5.90;;
7545;SDS011;3814;51.454;12.616;2022-12-07T05:39:24;17.92;;;5.75;;
7545;SDS011;3814;51.454;12.616;2022-12-07T05:41:49;22.25;;;5.95;;
7545;SDS011;3814;51.454;12.616;2022-12-07T05:44:33;16.90;;;5.55;;
7545;SDS011;3814;51.454;12.616;2022-12-07T05:46:59;16.38;;;5.55;;
7545;SDS011;3814;51.454;12.616;2022-12-07T05:49:24;16.63;;;5.65;;
7545;SDS011;3814;51.454;12.616;2022-12-07T05:51:49;17.50;;;6.10;;
7545;SDS011;3814;51.454;12.616;2022-12-07T05:54:14;14.85;;;5.85;;
7545;SDS011;3814;51.454;12.616;2022-12-07T05:56:40;16.25;;;5.75;;
7545;SDS011;3814;51.454;12.616;2022-12-07T05:59:05;16.55;;;5.60;;
7545;SDS011;3814;51.454;12.616;2022-12-07T06:01:49;18.05;;;6.07;;
7545;SDS011;3814;51.454;12.616;2022-12-07T06:04:16;16.42;;;5.88;;
7545;SDS011;3814;51.454;12.616;2022-12-07T06:06:41;18.60;;;6.05;;
7545;SDS011;3814;51.454;12.616;2022-12-07T06:09:07;18.73;;;6.22;;
7545;SDS011;3814;51.454;12.616;2022-12-07T06:11:32;19.52;;;6.40;;
7545;SDS011;3814;51.454;12.616;2022-12-07T06:14:16;17.33;;;6.30;;
7545;SDS011;3814;51.454;12.616;2022-12-07T06:16:41;16.88;;;6.25;;
7545;SDS011;3814;51.454;12.616;2022-12-07T06:19:07;17.92;;;6.15;;
7545;SDS011;3814;51.454;12.616;2022-12-07T06:21:32;17.30;;;6.13;;
7545;SDS011;3814;51.454;12.616;2022-12-07T06:23:57;17.80;;;6.55;;
7545;SDS011;3814;51.454;12.616;2022-12-07T06:26:23;18.60;;;6.55;;
7545;SDS011;3814;51.454;12.616;2022-12-07T06:28:48;18.73;;;6.75;;
7545;SDS011;3814;51.454;12.616;2022-12-07T06:31:13;17.17;;;6.03;;
7545;SDS011;3814;51.454;12.616;2022-12-07T06:33:39;16.17;;;5.85;;
7545;SDS011;3814;51.454;12.616;2022-12-07T06:36:04;16.92;;;6.32;;
7545;SDS011;3814;51.454;12.616;2022-12-07T06:38:29;16.65;;;6.30;;
7545;SDS011;3814;51.454;12.616;2022-12-07T06:40:55;16.60;;;6.60;;
7545;SDS011;3814;51.454;12.616;2022-12-07T06:43:20;15.70;;;6.43;;
7545;SDS011;3814;51.454;12.616;2022-12-07T06:45:45;16.35;;;6.40;;
7545;SDS011;3814;51.454;12.616;2022-12-07T06:48:11;18.45;;;6.93;;
7545;SDS011;3814;51.454;12.616;2022-12-07T06:50:36;18.42;;;6.65;;
7545;SDS011;3814;51.454;12.616;2022-12-07T06:53:01;19.52;;;6.85;;
7545;SDS011;3814;51.454;12.616;2022-12-07T06:55:27;19.08;;;6.57;;
7545;SDS011;3814;51.454;12.616;2022-12-07T06:57:52;18.00;;;6.57;;
7545;SDS011;3814;51.454;12.616;2022-12-07T07:00:17;17.23;;;6.18;;
7545;SDS011;3814;51.454;12.616;2022-12-07T07:02:43;20.00;;;6.68;;
7545;SDS011;3814;51.454;12.616;2022-12-07T07:05:08;17.83;;;6.68;;
7545;SDS011;3814;51.454;12.616;2022-12-07T07:07:34;15.63;;;6.00;;
7545;SDS011;3814;51.454;12.616;2022-12-07T07:09:59;17.13;;;6.57;;
7545;SDS011;3814;51.454;12.616;2022-12-07T07:12:24;16.58;;;6.22;;
7545;SDS011;3814;51.454;12.616;2022-12-07T07:14:49;16.50;;;6.30;;
7545;SDS011;3814;51.454;12.616;2022-12-07T07:17:15;18.67;;;6.40;;
7545;SDS011;3814;51.454;12.616;2022-12-07T07:19:40;16.83;;;6.22;;
7545;SDS011;3814;51.454;12.616;2022-12-07T07:22:05;18.75;;;6.80;;
7545;SDS011;3814;51.454;12.616;2022-12-07T07:24:31;16.58;;;6.05;;
7545;SDS011;3814;51.454;12.616;2022-12-07T07:26:56;20.17;;;7.00;;
7545;SDS011;3814;51.454;12.616;2022-12-07T07:29:21;18.63;;;6.47;;
7545;SDS011;3814;51.454;12.616;2022-12-07T07:31:47;18.20;;;6.57;;
7545;SDS011;3814;51.454;12.616;2022-12-07T07:34:18;18.17;;;6.50;;
7545;SDS011;3814;51.454;12.616;2022-12-07T08:41:24;27.63;;;8.57;;
7545;SDS011;3814;51.454;12.616;2022-12-07T08:47:09;21.95;;;7.70;;
7545;SDS011;3814;51.454;12.616;2022-12-07T08:50:05;19.33;;;6.55;;
7545;SDS011;3814;51.454;12.616;2022-12-07T08:58:47;16.10;;;6.15;;
7545;SDS011;3814;51.454;12.616;2022-12-07T09:01:13;14.43;;;5.93;;
7545;SDS011;3814;51.454;12.616;2022-12-07T09:03:38;16.70;;;6.45;;
7545;SDS011;3814;51.454;12.616;2022-12-07T09:06:04;17.42;;;6.55;;
7545;SDS011;3814;51.454;12.616;2022-12-07T09:08:31;18.52;;;6.72;;
7545;SDS011;3814;51.454;12.616;2022-12-07T09:10:58;20.55;;;7.22;;
7545;SDS011;3814;51.454;12.616;2022-12-07T09:13:24;20.38;;;7.10;;
7545;SDS011;3814;51.454;12.616;2022-12-07T09:15:49;19.00;;;6.93;;
7545;SDS011;3814;51.454;12.616;2022-12-07T09:18:14;15.98;;;6.78;;
7545;SDS011;3814;51.454;12.616;2022-12-07T09:20:39;18.33;;;5.78;;
7545;SDS011;3814;51.454;12.616;2022-12-07T09:23:05;12.52;;;5.60;;
7545;SDS011;3814;51.454;12.616;2022-12-07T09:25:32;15.65;;;5.78;;
7545;SDS011;3814;51.454;12.616;2022-12-07T09:27:57;13.68;;;5.25;;
7545;SDS011;3814;51.454;12.616;2022-12-07T09:30:23;12.55;;;4.88;;
7545;SDS011;3814;51.454;12.616;2022-12-07T09:32:48;13.40;;;4.70;;
7545;SDS011;3814;51.454;12.616;2022-12-07T09:35:14;14.27;;;5.28;;
7545;SDS011;3814;51.454;12.616;2022-12-07T09:37:39;16.73;;;5.05;;
7545;SDS011;3814;51.454;12.616;2022-12-07T09:40:05;11.05;;;5.07;;
7545;SDS011;3814;51.454;12.616;2022-12-07T09:42:35;9.45;;;3.70;;
7545;SDS011;3814;51.454;12.616;2022-12-07T09:45:02;12.75;;;3.83;;
7545;SDS011;3814;51.454;12.616;2022-12-07T09:47:29;13.38;;;4.78;;
7545;SDS011;3814;51.454;12.616;2022-12-07T09:49:57;17.73;;;6.00;;
7545;SDS011;3814;51.454;12.616;2022-12-07T09:52:27;19.20;;;6.85;;
7545;SDS011;3814;51.454;12.616;2022-12-07T09:54:53;18.85;;;6.97;;
7545;SDS011;3814;51.454;12.616;2022-12-07T09:57:29;19.27;;;6.85;;
7545;SDS011;3814;51.454;12.616;2022-12-07T09:59:56;17.13;;;6.57;;
7545;SDS011;3814;51.454;12.616;2022-12-07T10:02:34;19.40;;;6.68;;
7545;SDS011;3814;51.454;12.616;2022-12-07T10:05:07;15.75;;;5.82;;
7545;SDS011;3814;51.454;12.616;2022-12-07T10:07:35;18.98;;;6.60;;
7545;SDS011;3814;51.454;12.616;2022-12-07T10:10:04;14.77;;;5.75;;
7545;SDS011;3814;51.454;12.616;2022-12-07T10:12:53;15.00;;;5.60;;
7545;SDS011;3814;51.454;12.616;2022-12-07T10:15:20;12.48;;;5.35;;
7545;SDS011;3814;51.454;12.616;2022-12-07T10:17:49;17.58;;;5.60;;
7545;SDS011;3814;51.454;12.616;2022-12-07T10:20:18;15.07;;;5.18;;
7545;SDS011;3814;51.454;12.616;2022-12-07T10:25:29;13.10;;;4.88;;
7545;SDS011;3814;51.454;12.616;2022-12-07T10:28:18;14.90;;;5.35;;
7545;SDS011;3814;51.454;12.616;2022-12-07T10:33:38;14.77;;;5.63;;
7545;SDS011;3814;51.454;12.616;2022-12-07T10:38:48;16.52;;;6.00;;
7545;SDS011;3814;51.454;12.616;2022-12-07T11:18:48;14.02;;;5.15;;
7545;SDS011;3814;51.454;12.616;2022-12-07T11:24:49;13.05;;;4.18;;
7545;SDS011;3814;51.454;12.616;2022-12-07T11:30:22;10.75;;;4.45;;
7545;SDS011;3814;51.454;12.616;2022-12-07T11:32:51;11.68;;;4.80;;
7545;SDS011;3814;51.454;12.616;2022-12-07T11:35:34;12.23;;;4.90;;
7545;SDS011;3814;51.454;12.616;2022-12-07T11:38:10;14.90;;;4.85;;
7545;SDS011;3814;51.454;12.616;2022-12-07T11:40:38;11.57;;;4.80;;
7545;SDS011;3814;51.454;12.616;2022-12-07T11:43:10;12.38;;;4.88;;
7545;SDS011;3814;51.454;12.616;2022-12-07T11:48:11;12.43;;;4.03;;
7545;SDS011;3814;51.454;12.616;2022-12-07T11:50:42;7.93;;;3.70;;
7545;SDS011;3814;51.454;12.616;2022-12-07T12:32:06;9.93;;;3.30;;
7545;SDS011;3814;51.454;12.616;2022-12-07T12:41:50;5.88;;;2.35;;
7545;SDS011;3814;51.454;12.616;2022-12-07T12:50:35;5.28;;;2.50;;
7545;SDS011;3814;51.454;12.616;2022-12-07T13:15:40;8.27;;;2.80;;
7545;SDS011;3814;51.454;12.616;2022-12-07T13:21:40;9.38;;;3.25;;
7545;SDS011;3814;51.454;12.616;2022-12-07T13:23:57;3.30;;;2.00;;
7545;SDS011;3814;51.454;12.616;2022-12-07T13:34:30;2.60;;;1.42;;
7545;SDS011;3814;51.454;12.616;2022-12-07T13:37:23;5.53;;;1.80;;
7545;SDS011;3814;51.454;12.616;2022-12-07T13:39:54;2.50;;;1.35;;
7545;SDS011;3814;51.454;12.616;2022-12-07T13:42:40;3.42;;;1.17;;
7545;SDS011;3814;51.454;12.616;2022-12-07T13:45:25;2.83;;;1.50;;
7545;SDS011;3814;51.454;12.616;2022-12-07T13:48:24;2.95;;;1.50;;
7545;SDS011;3814;51.454;12.616;2022-12-07T13:53:20;4.93;;;1.60;;
7545;SDS011;3814;51.454;12.616;2022-12-07T13:55:46;4.72;;;1.85;;
7545;SDS011;3814;51.454;12.616;2022-12-07T14:22:08;7.85;;;3.10;;
7545;SDS011;3814;51.454;12.616;2022-12-07T14:24:44;6.05;;;2.53;;
7545;SDS011;3814;51.454;12.616;2022-12-07T14:27:19;8.20;;;3.15;;
7545;SDS011;3814;51.454;12.616;2022-12-07T14:29:49;6.57;;;2.85;;
7545;SDS011;3814;51.454;12.616;2022-12-07T14:32:36;5.93;;;2.90;;
7545;SDS011;3814;51.454;12.616;2022-12-07T14:35:13;5.80;;;2.45;;
7545;SDS011;3814;51.454;12.616;2022-12-07T14:45:46;7.88;;;2.35;;
7545;SDS011;3814;51.454;12.616;2022-12-07T15:06:17;3.20;;;1.52;;
7545;SDS011;3814;51.454;12.616;2022-12-07T15:08:43;4.22;;;1.60;;
7545;SDS011;3814;51.454;12.616;2022-12-07T15:11:16;4.32;;;1.67;;
7545;SDS011;3814;51.454;12.616;2022-12-07T15:13:42;5.28;;;1.90;;
7545;SDS011;3814;51.454;12.616;2022-12-07T15:16:26;7.70;;;2.30;;
7545;SDS011;3814;51.454;12.616;2022-12-07T15:18:51;6.15;;;2.28;;
7545;SDS011;3814;51.454;12.616;2022-12-07T15:21:17;3.78;;;1.75;;
7545;SDS011;3814;51.454;12.616;2022-12-07T15:23:42;7.35;;;3.08;;
7545;SDS011;3814;51.454;12.616;2022-12-07T15:26:09;6.25;;;2.72;;
7545;SDS011;3814;51.454;12.616;2022-12-07T15:28:35;7.95;;;3.08;;
7545;SDS011;3814;51.454;12.616;2022-12-07T15:31:00;8.32;;;2.60;;
7545;SDS011;3814;51.454;12.616;2022-12-07T15:33:26;8.88;;;3.40;;
7545;SDS011;3814;51.454;12.616;2022-12-07T15:35:51;14.30;;;5.20;;
7545;SDS011;3814;51.454;12.616;2022-12-07T15:38:16;14.05;;;5.50;;
7545;SDS011;3814;51.454;12.616;2022-12-07T15:40:42;11.20;;;4.93;;
7545;SDS011;3814;51.454;12.616;2022-12-07T15:43:10;6.57;;;3.13;;
7545;SDS011;3814;51.454;12.616;2022-12-07T15:45:55;8.05;;;3.33;;
7545;SDS011;3814;51.454;12.616;2022-12-07T15:48:21;7.28;;;3.00;;
7545;SDS011;3814;51.454;12.616;2022-12-07T15:50:46;7.30;;;2.80;;
7545;SDS011;3814;51.454;12.616;2022-12-07T15:53:11;7.28;;;2.88;;
7545;SDS011;3814;51.454;12.616;2022-12-07T15:55:40;7.28;;;2.78;;
7545;SDS011;3814;51.454;12.616;2022-12-07T15:58:05;7.72;;;2.50;;
7545;SDS011;3814;51.454;12.616;2022-12-07T16:00:30;6.28;;;2.50;;
7545;SDS011;3814;51.454;12.616;2022-12-07T16:02:56;5.20;;;2.28;;
7545;SDS011;3814;51.454;12.616;2022-12-07T16:05:21;15.88;;;5.95;;
7545;SDS011;3814;51.454;12.616;2022-12-07T16:07:47;11.10;;;4.13;;
7545;SDS011;3814;51.454;12.616;2022-12-07T16:10:12;6.28;;;2.60;;
7545;SDS011;3814;51.454;12.616;2022-12-07T16:12:38;8.27;;;2.38;;
7545;SDS011;3814;51.454;12.616;2022-12-07T16:15:03;5.82;;;2.08;;
7545;SDS011;3814;51.454;12.616;2022-12-07T16:17:29;8.93;;;3.00;;
7545;SDS011;3814;51.454;12.616;2022-12-07T16:19:54;7.25;;;2.80;;
7545;SDS011;3814;51.454;12.616;2022-12-07T16:22:20;8.70;;;2.65;;
7545;SDS011;3814;51.454;12.616;2022-12-07T16:24:45;5.75;;;2.83;;
7545;SDS011;3814;51.454;12.616;2022-12-07T16:27:10;5.95;;;2.53;;
7545;SDS011;3814;51.454;12.616;2022-12-07T16:29:36;8.05;;;2.47;;
7545;SDS011;3814;51.454;12.616;2022-12-07T16:32:01;7.40;;;2.75;;
7545;SDS011;3814;51.454;12.616;2022-12-07T16:34:26;8.32;;;2.70;;
7545;SDS011;3814;51.454;12.616;2022-12-07T16:36:52;8.52;;;2.78;;
7545;SDS011;3814;51.454;12.616;2022-12-07T16:39:17;6.50;;;2.10;;
7545;SDS011;3814;51.454;12.616;2022-12-07T16:41:43;5.22;;;2.13;;
7545;SDS011;3814;51.454;12.616;2022-12-07T16:44:10;5.90;;;2.20;;
7545;SDS011;3814;51.454;12.616;2022-12-07T16:46:37;4.35;;;1.90;;
7545;SDS011;3814;51.454;12.616;2022-12-07T16:49:03;4.85;;;2.08;;
7545;SDS011;3814;51.454;12.616;2022-12-07T16:51:28;5.05;;;2.00;;
7545;SDS011;3814;51.454;12.616;2022-12-07T16:53:54;4.30;;;1.90;;
7545;SDS011;3814;51.454;12.616;2022-12-07T16:56:19;7.20;;;2.00;;
7545;SDS011;3814;51.454;12.616;2022-12-07T16:58:45;6.60;;;1.90;;
7545;SDS011;3814;51.454;12.616;2022-12-07T17:01:13;3.38;;;1.67;;
7545;SDS011;3814;51.454;12.616;2022-12-07T17:03:40;4.40;;;1.77;;
7545;SDS011;3814;51.454;12.616;2022-12-07T17:06:39;3.88;;;1.58;;
7545;SDS011;3814;51.454;12.616;2022-12-07T17:08:57;6.85;;;1.88;;
7545;SDS011;3814;51.454;12.616;2022-12-07T17:11:24;5.75;;;2.00;;
7545;SDS011;3814;51.454;12.616;2022-12-07T17:13:51;6.55;;;3.17;;
7545;SDS011;3814;51.454;12.616;2022-12-07T17:16:35;9.27;;;3.47;;
7545;SDS011;3814;51.454;12.616;2022-12-07T17:19:05;7.78;;;3.17;;
7545;SDS011;3814;51.454;12.616;2022-12-07T17:21:31;5.05;;;2.75;;
7545;SDS011;3814;51.454;12.616;2022-12-07T17:23:58;3.35;;;1.88;;
7545;SDS011;3814;51.454;12.616;2022-12-07T17:26:24;3.85;;;1.80;;
7545;SDS011;3814;51.454;12.616;2022-12-07T17:28:50;2.60;;;1.50;;
7545;SDS011;3814;51.454;12.616;2022-12-07T17:31:16;5.28;;;1.60;;
7545;SDS011;3814;51.454;12.616;2022-12-07T17:33:42;3.70;;;1.70;;
7545;SDS011;3814;51.454;12.616;2022-12-07T17:36:11;3.85;;;1.73;;
7545;SDS011;3814;51.454;12.616;2022-12-07T17:38:42;6.32;;;1.92;;
7545;SDS011;3814;51.454;12.616;2022-12-07T17:41:08;5.03;;;2.08;;
7545;SDS011;3814;51.454;12.616;2022-12-07T17:43:35;5.55;;;2.10;;
7545;SDS011;3814;51.454;12.616;2022-12-07T17:46:05;6.13;;;1.95;;
7545;SDS011;3814;51.454;12.616;2022-12-07T17:48:31;7.78;;;3.00;;
7545;SDS011;3814;51.454;12.616;2022-12-07T17:51:00;5.88;;;2.75;;
7545;SDS011;3814;51.454;12.616;2022-12-07T17:53:47;4.88;;;2.28;;
7545;SDS011;3814;51.454;12.616;2022-12-07T17:56:13;6.90;;;2.97;;
7545;SDS011;3814;51.454;12.616;2022-12-07T17:58:38;9.55;;;3.33;;
7545;SDS011;3814;51.454;12.616;2022-12-07T18:01:07;7.55;;;2.92;;
7545;SDS011;3814;51.454;12.616;2022-12-07T18:03:33;6.85;;;3.22;;
7545;SDS011;3814;51.454;12.616;2022-12-07T18:05:59;8.60;;;3.63;;
7545;SDS011;3814;51.454;12.616;2022-12-07T18:08:25;7.25;;;3.90;;
7545;SDS011;3814;51.454;12.616;2022-12-07T18:10:56;6.28;;;3.30;;
7545;SDS011;3814;51.454;12.616;2022-12-07T18:13:23;6.38;;;3.13;;
7545;SDS011;3814;51.454;12.616;2022-12-07T18:16:00;7.45;;;3.33;;
7545;SDS011;3814;51.454;12.616;2022-12-07T18:18:28;6.97;;;3.00;;
7545;SDS011;3814;51.454;12.616;2022-12-07T18:20:54;4.38;;;2.63;;
7545;SDS011;3814;51.454;12.616;2022-12-07T18:23:19;6.15;;;3.10;;
7545;SDS011;3814;51.454;12.616;2022-12-07T18:25:48;7.00;;;2.95;;
7545;SDS011;3814;51.454;12.616;2022-12-07T18:30:39;6.70;;;2.60;;
7545;SDS011;3814;51.454;12.616;2022-12-07T18:33:05;7.50;;;3.20;;
7545;SDS011;3814;51.454;12.616;2022-12-07T18:35:30;6.97;;;3.55;;
7545;SDS011;3814;51.454;12.616;2022-12-07T18:37:58;10.73;;;4.10;;
7545;SDS011;3814;51.454;12.616;2022-12-07T18:40:23;11.40;;;4.15;;
7545;SDS011;3814;51.454;12.616;2022-12-07T18:42:49;7.57;;;3.13;;
7545;SDS011;3814;51.454;12.616;2022-12-07T18:45:14;7.90;;;3.45;;
7545;SDS011;3814;51.454;12.616;2022-12-07T18:47:40;11.05;;;3.90;;
7545;SDS011;3814;51.454;12.616;2022-12-07T18:50:06;13.02;;;4.40;;
7545;SDS011;3814;51.454;12.616;2022-12-07T18:52:31;9.57;;;3.58;;
7545;SDS011;3814;51.454;12.616;2022-12-07T18:54:57;12.63;;;3.58;;
7545;SDS011;3814;51.454;12.616;2022-12-07T18:57:22;8.38;;;3.83;;
7545;SDS011;3814;51.454;12.616;2022-12-07T18:59:48;11.27;;;3.95;;
7545;SDS011;3814;51.454;12.616;2022-12-07T19:02:14;8.10;;;3.33;;
7545;SDS011;3814;51.454;12.616;2022-12-07T19:04:40;7.57;;;2.90;;
7545;SDS011;3814;51.454;12.616;2022-12-07T19:07:05;8.13;;;3.20;;
7545;SDS011;3814;51.454;12.616;2022-12-07T19:09:31;9.65;;;3.63;;
7545;SDS011;3814;51.454;12.616;2022-12-07T19:11:56;7.68;;;2.92;;
7545;SDS011;3814;51.454;12.616;2022-12-07T19:14:28;10.88;;;4.22;;
7545;SDS011;3814;51.454;12.616;2022-12-07T19:16:55;7.63;;;3.20;;
7545;SDS011;3814;51.454;12.616;2022-12-07T19:19:23;7.63;;;3.13;;
7545;SDS011;3814;51.454;12.616;2022-12-07T19:21:49;9.13;;;3.25;;
7545;SDS011;3814;51.454;12.616;2022-12-07T19:24:14;10.00;;;3.10;;
7545;SDS011;3814;51.454;12.616;2022-12-07T19:26:40;10.82;;;3.30;;
7545;SDS011;3814;51.454;12.616;2022-12-07T19:29:05;10.55;;;3.13;;
7545;SDS011;3814;51.454;12.616;2022-12-07T19:31:31;5.47;;;2.80;;
7545;SDS011;3814;51.454;12.616;2022-12-07T19:33:57;7.38;;;3.17;;
7545;SDS011;3814;51.454;12.616;2022-12-07T19:36:22;9.35;;;3.05;;
7545;SDS011;3814;51.454;12.616;2022-12-07T19:38:48;13.23;;;3.33;;
7545;SDS011;3814;51.454;12.616;2022-12-07T19:41:14;8.85;;;3.60;;
7545;SDS011;3814;51.454;12.616;2022-12-07T19:44:02;8.18;;;3.65;;
7545;SDS011;3814;51.454;12.616;2022-12-07T19:46:29;9.35;;;3.60;;
7545;SDS011;3814;51.454;12.616;2022-12-07T19:48:55;8.95;;;4.03;;
7545;SDS011;3814;51.454;12.616;2022-12-07T19:51:21;8.48;;;3.50;;
7545;SDS011;3814;51.454;12.616;2022-12-07T19:53:47;11.38;;;4.10;;
7545;SDS011;3814;51.454;12.616;2022-12-07T19:56:13;9.40;;;3.67;;
7545;SDS011;3814;51.454;12.616;2022-12-07T19:58:39;10.70;;;3.50;;
7545;SDS011;3814;51.454;12.616;2022-12-07T20:01:04;11.23;;;3.45;;
7545;SDS011;3814;51.454;12.616;2022-12-07T20:03:30;11.32;;;3.67;;
7545;SDS011;3814;51.454;12.616;2022-12-07T20:05:56;11.40;;;3.83;;
7545;SDS011;3814;51.454;12.616;2022-12-07T20:08:22;11.07;;;4.20;;
7545;SDS011;3814;51.454;12.616;2022-12-07T20:10:47;8.73;;;3.97;;
7545;SDS011;3814;51.454;12.616;2022-12-07T20:13:14;11.02;;;3.85;;
7545;SDS011;3814;51.454;12.616;2022-12-07T20:15:53;10.05;;;3.67;;
7545;SDS011;3814;51.454;12.616;2022-12-07T20:18:27;8.95;;;3.92;;
7545;SDS011;3814;51.454;12.616;2022-12-07T20:20:53;10.25;;;3.67;;